createdAt,value
2019-02-19T00:01:26.049Z,10.68
2019-02-19T00:03:56.571Z,10.68
2019-02-19T00:06:27.283Z,12.73
2019-02-19T00:08:58.316Z,11.53
2019-02-19T00:11:28.852Z,11.40
2019-02-19T00:13:59.394Z,12.63
2019-02-19T00:16:30.044Z,14.00
2019-02-19T00:19:00.613Z,13.60
2019-02-19T00:21:31.196Z,15.08
2019-02-19T00:24:01.831Z,12.85
2019-02-19T00:26:32.455Z,13.85
2019-02-19T00:29:02.996Z,12.75
2019-02-19T00:31:33.593Z,14.05
2019-02-19T00:34:04.196Z,15.25
2019-02-19T00:36:34.812Z,13.20
2019-02-19T00:39:06.232Z,12.78
2019-02-19T00:41:36.946Z,14.43
2019-02-19T00:44:07.814Z,13.40
2019-02-19T00:46:38.758Z,14.95
2019-02-19T00:49:09.314Z,16.80
2019-02-19T00:51:39.956Z,15.90
2019-02-19T00:54:10.505Z,17.00
2019-02-19T00:56:41.071Z,13.35
2019-02-19T00:59:11.702Z,17.00
2019-02-19T01:01:42.299Z,14.65
2019-02-19T01:04:12.870Z,15.68
2019-02-19T01:06:43.535Z,15.38
2019-02-19T01:09:15.208Z,16.50
2019-02-19T01:11:45.741Z,11.75
2019-02-19T01:14:16.255Z,17.57
2019-02-19T01:16:46.900Z,16.80
2019-02-19T01:19:17.508Z,17.20
2019-02-19T01:21:48.053Z,17.60
2019-02-19T01:24:18.577Z,16.48
2019-02-19T01:26:49.216Z,15.05
2019-02-19T01:29:19.838Z,15.90
2019-02-19T01:31:50.448Z,20.37
2019-02-19T01:34:20.980Z,18.85
2019-02-19T01:36:51.625Z,17.12
2019-02-19T01:39:22.184Z,18.25
2019-02-19T01:41:52.768Z,21.02
2019-02-19T01:44:23.445Z,19.92
2019-02-19T01:46:53.990Z,20.68
2019-02-19T01:49:24.640Z,20.57
2019-02-19T01:51:55.312Z,19.30
2019-02-19T01:54:25.980Z,23.12
2019-02-19T01:56:56.590Z,22.80
2019-02-19T01:59:27.155Z,23.83
2019-02-19T02:01:57.747Z,24.63
2019-02-19T02:04:28.327Z,21.00
2019-02-19T02:06:58.867Z,23.55
2019-02-19T02:09:29.451Z,23.15
2019-02-19T02:12:00.492Z,23.90
2019-02-19T02:14:31.420Z,21.73
2019-02-19T02:17:02.376Z,23.62
2019-02-19T02:19:33.302Z,25.08
2019-02-19T02:22:03.923Z,21.50
2019-02-19T02:24:35.484Z,21.35
2019-02-19T02:27:07.455Z,23.00
2019-02-19T02:29:38.081Z,25.05
2019-02-19T02:32:08.710Z,25.57
2019-02-19T02:34:39.373Z,24.45
2019-02-19T02:37:10.099Z,25.02
2019-02-19T02:39:40.600Z,24.45
2019-02-19T02:42:11.180Z,26.40
2019-02-19T02:44:41.808Z,24.25
2019-02-19T02:47:12.408Z,26.52
2019-02-19T02:49:43.037Z,29.07
2019-02-19T02:52:13.671Z,26.10
2019-02-19T02:54:44.213Z,27.55
2019-02-19T02:57:15.065Z,27.73
2019-02-19T02:59:45.979Z,25.77
2019-02-19T03:02:16.947Z,29.35
2019-02-19T03:04:47.982Z,27.17
2019-02-19T03:07:39.929Z,30.17
2019-02-19T03:10:10.851Z,26.90
2019-02-19T03:12:41.464Z,28.40
2019-02-19T03:15:12.641Z,26.97
2019-02-19T03:17:43.714Z,30.02
2019-02-19T03:20:14.801Z,26.55
2019-02-19T03:22:45.383Z,28.80
2019-02-19T03:25:15.941Z,27.17
2019-02-19T03:27:46.601Z,26.95
2019-02-19T03:30:18.162Z,28.05
2019-02-19T03:32:48.834Z,30.92
2019-02-19T03:35:19.440Z,29.80
2019-02-19T03:37:50.061Z,26.20
2019-02-19T03:40:20.614Z,30.35
2019-02-19T03:42:51.140Z,27.77
2019-02-19T03:45:21.843Z,33.02
2019-02-19T03:47:52.482Z,31.93
2019-02-19T03:50:23.117Z,26.55
2019-02-19T03:52:53.743Z,32.15
2019-02-19T03:55:24.338Z,31.45
2019-02-19T03:57:55.145Z,21.62
2019-02-19T04:00:26.866Z,31.10
2019-02-19T04:02:57.452Z,32.20
2019-02-19T04:05:28.029Z,28.40
2019-02-19T04:07:58.698Z,25.92
2019-02-19T04:10:29.259Z,32.45
2019-02-19T04:12:59.938Z,28.98
2019-02-19T04:15:30.833Z,32.93
2019-02-19T04:18:01.432Z,30.82
2019-02-19T04:20:32.052Z,34.13
2019-02-19T04:23:02.751Z,33.08
2019-02-19T04:25:33.320Z,32.10
2019-02-19T04:28:06.635Z,34.27
2019-02-19T04:30:37.195Z,34.95
2019-02-19T04:33:07.793Z,37.00
2019-02-19T04:35:38.385Z,33.33
2019-02-19T04:38:08.928Z,33.25
2019-02-19T04:40:39.457Z,33.08
2019-02-19T04:43:09.965Z,29.37
2019-02-19T04:45:40.549Z,27.98
2019-02-19T04:48:11.253Z,36.93
2019-02-19T04:50:41.823Z,28.35
2019-02-19T04:53:12.439Z,31.65
2019-02-19T04:55:43.023Z,34.60
2019-02-19T04:58:14.739Z,31.73
2019-02-19T05:00:45.256Z,35.17
2019-02-19T05:03:15.835Z,32.78
2019-02-19T05:05:46.456Z,32.48
2019-02-19T05:08:16.994Z,35.92
2019-02-19T05:10:47.511Z,36.85
2019-02-19T05:13:18.044Z,34.23
2019-02-19T05:15:48.565Z,35.33
2019-02-19T05:18:19.155Z,36.40
2019-02-19T05:20:49.765Z,37.67
2019-02-19T05:23:20.328Z,34.13
2019-02-19T05:25:50.896Z,39.55
2019-02-19T05:28:21.490Z,33.88
2019-02-19T05:30:52.117Z,38.05
2019-02-19T05:33:22.751Z,37.05
2019-02-19T05:35:53.315Z,34.53
2019-02-19T05:38:23.917Z,36.70
2019-02-19T05:40:54.412Z,37.03
2019-02-19T05:43:25.405Z,34.50
2019-02-19T05:45:55.904Z,37.25
2019-02-19T05:48:26.536Z,32.55
2019-02-19T05:50:57.034Z,37.67
2019-02-19T05:53:27.563Z,35.35
2019-02-19T05:55:58.136Z,39.70
2019-02-19T05:58:28.766Z,36.33
2019-02-19T06:00:59.293Z,38.58
2019-02-19T06:03:29.829Z,37.17
2019-02-19T06:06:00.349Z,38.05
2019-02-19T06:08:30.941Z,34.20
2019-02-19T06:11:01.448Z,35.85
2019-02-19T06:13:32.048Z,41.30
2019-02-19T06:16:02.540Z,34.85
2019-02-19T06:18:33.217Z,38.88
2019-02-19T06:21:03.809Z,36.42
2019-02-19T06:23:34.441Z,37.50
2019-02-19T06:26:05.013Z,39.40
2019-02-19T06:28:35.648Z,36.95
2019-02-19T06:31:06.177Z,35.45
2019-02-19T06:33:36.720Z,37.78
2019-02-19T06:36:07.264Z,33.50
2019-02-19T06:38:37.798Z,39.98
2019-02-19T06:41:08.403Z,41.80
2019-02-19T06:43:40.106Z,41.63
2019-02-19T06:46:11.817Z,36.90
2019-02-19T06:48:42.448Z,38.75
2019-02-19T06:51:12.998Z,34.88
2019-02-19T06:53:43.507Z,42.25
2019-02-19T06:56:14.153Z,39.75
2019-02-19T06:58:44.701Z,40.92
2019-02-19T07:01:15.915Z,45.38
2019-02-19T07:04:02.661Z,38.88
2019-02-19T07:06:33.364Z,41.08
2019-02-19T07:09:04.923Z,34.20
2019-02-19T07:11:35.446Z,39.67
2019-02-19T07:14:05.982Z,37.50
2019-02-19T07:16:36.608Z,40.73
2019-02-19T07:19:07.240Z,41.00
2019-02-19T07:21:37.762Z,42.08
2019-02-19T07:24:08.423Z,38.70
2019-02-19T07:26:39.036Z,42.43
2019-02-19T07:29:09.571Z,40.17
2019-02-19T07:31:40.156Z,37.48
2019-02-19T07:34:10.839Z,38.15
2019-02-19T07:36:41.421Z,39.50
2019-02-19T07:39:12.007Z,43.78
2019-02-19T07:41:42.508Z,41.95
2019-02-19T07:44:13.020Z,39.27
2019-02-19T07:46:43.516Z,44.15
2019-02-19T07:49:14.146Z,38.78
2019-02-19T07:51:44.809Z,41.15
2019-02-19T07:54:15.392Z,43.92
2019-02-19T07:56:46.027Z,41.13
2019-02-19T07:59:16.653Z,43.10
2019-02-19T08:01:47.192Z,43.60
2019-02-19T08:04:17.809Z,42.50
2019-02-19T08:06:48.340Z,37.13
2019-02-19T08:09:18.890Z,42.38
2019-02-19T08:11:49.512Z,43.58
2019-02-19T08:14:20.071Z,45.85
2019-02-19T08:16:50.730Z,41.05
2019-02-19T08:19:21.289Z,41.33
2019-02-19T08:21:51.782Z,45.85
2019-02-19T08:24:22.378Z,44.05
2019-02-19T08:26:53.000Z,45.80
2019-02-19T08:29:23.515Z,40.48
2019-02-19T08:31:54.061Z,45.15
2019-02-19T08:34:24.694Z,39.58
2019-02-19T08:36:55.324Z,38.53
2019-02-19T08:39:25.842Z,44.77
2019-02-19T08:41:56.353Z,42.03
2019-02-19T08:44:26.965Z,41.15
2019-02-19T08:46:57.553Z,47.50
2019-02-19T08:49:28.056Z,44.60
2019-02-19T08:51:58.713Z,42.08
2019-02-19T08:54:29.250Z,42.78
2019-02-19T08:56:59.758Z,45.55
2019-02-19T08:59:30.339Z,34.60
2019-02-19T09:02:00.898Z,39.27
2019-02-19T09:04:31.423Z,42.17
2019-02-19T09:07:01.949Z,42.95
2019-02-19T09:09:32.557Z,46.00
2019-02-19T09:12:03.158Z,38.15
2019-02-19T09:14:33.712Z,40.45
2019-02-19T09:17:04.295Z,46.10
2019-02-19T09:19:34.855Z,42.53
2019-02-19T09:22:05.692Z,41.40
2019-02-19T09:24:36.333Z,44.85
2019-02-19T09:27:06.856Z,42.78
2019-02-19T09:29:38.616Z,46.25
2019-02-19T09:32:09.248Z,45.73
2019-02-19T09:34:39.877Z,41.70
2019-02-19T09:37:12.780Z,39.78
2019-02-19T09:39:43.315Z,42.53
2019-02-19T09:42:13.813Z,47.15
2019-02-19T09:44:44.325Z,43.83
2019-02-19T09:47:14.856Z,45.73
2019-02-19T09:49:45.520Z,45.00
2019-02-19T09:52:16.068Z,45.55
2019-02-19T09:54:46.698Z,45.58
2019-02-19T09:57:17.228Z,48.63
2019-02-19T09:59:47.761Z,42.85
2019-02-19T10:02:18.385Z,43.85
2019-02-19T10:04:48.895Z,37.85
2019-02-19T10:07:19.505Z,42.60
2019-02-19T10:09:49.992Z,45.95
2019-02-19T10:12:20.605Z,44.55
2019-02-19T10:14:51.164Z,44.30
2019-02-19T10:17:21.764Z,46.50
2019-02-19T10:19:52.410Z,40.48
2019-02-19T10:22:22.996Z,44.00
2019-02-19T10:24:53.517Z,41.15
2019-02-19T10:27:24.103Z,43.05
2019-02-19T10:29:54.653Z,36.55
2019-02-19T10:32:25.518Z,43.60
2019-02-19T10:34:56.097Z,41.90
2019-02-19T10:37:26.621Z,41.63
2019-02-19T10:39:57.136Z,42.62
2019-02-19T10:42:27.722Z,40.10
2019-02-19T10:44:58.316Z,41.65
2019-02-19T10:47:28.811Z,42.75
2019-02-19T10:49:59.365Z,41.53
2019-02-19T10:52:29.848Z,45.60
2019-02-19T10:55:00.436Z,31.17
2019-02-19T10:57:30.928Z,39.88
2019-02-19T11:00:01.498Z,41.33
2019-02-19T11:02:33.256Z,41.08
2019-02-19T11:05:03.787Z,40.70
2019-02-19T11:07:34.368Z,41.92
2019-02-19T11:10:05.587Z,39.23
2019-02-19T11:12:36.059Z,39.03
2019-02-19T11:15:06.912Z,38.75
2019-02-19T11:17:37.500Z,41.98
2019-02-19T11:20:09.669Z,41.77
2019-02-19T11:22:40.179Z,42.15
2019-02-19T11:25:12.048Z,40.67
2019-02-19T11:27:42.665Z,42.15
2019-02-19T11:30:15.548Z,38.42
2019-02-19T11:32:46.084Z,40.67
2019-02-19T11:35:16.600Z,41.70
2019-02-19T11:37:47.168Z,40.75
2019-02-19T11:40:17.714Z,40.45
2019-02-19T11:42:48.320Z,41.88
2019-02-19T11:45:18.939Z,40.25
2019-02-19T11:47:50.764Z,39.92
2019-02-19T11:50:21.344Z,38.42
2019-02-19T11:52:51.960Z,37.75
2019-02-19T11:55:22.507Z,39.73
2019-02-19T11:57:53.129Z,40.52
2019-02-19T12:00:29.649Z,41.25
2019-02-19T12:03:00.155Z,41.55
2019-02-19T12:05:30.688Z,42.13
2019-02-19T12:08:01.299Z,39.35
2019-02-19T12:10:31.917Z,43.00
2019-02-19T12:13:02.407Z,40.75
2019-02-19T12:15:35.209Z,42.58
2019-02-19T12:18:05.156Z,42.60
2019-02-19T12:20:35.792Z,42.55
2019-02-19T12:23:06.364Z,40.78
2019-02-19T12:25:36.886Z,40.85
2019-02-19T12:28:07.475Z,40.50
2019-02-19T12:30:38.128Z,41.15
2019-02-19T12:33:08.740Z,39.98
2019-02-19T12:35:39.369Z,41.08
2019-02-19T12:38:09.956Z,40.67
2019-02-19T12:40:40.535Z,42.55
2019-02-19T12:43:11.136Z,39.85
2019-02-19T12:45:41.693Z,38.73
2019-02-19T12:48:13.373Z,40.70
2019-02-19T12:50:44.123Z,39.70
2019-02-19T12:53:14.572Z,37.40
2019-02-19T12:55:45.171Z,40.23
2019-02-19T12:58:15.786Z,40.55
2019-02-19T13:00:46.342Z,39.85
2019-02-19T13:03:16.948Z,39.25
2019-02-19T13:05:47.584Z,38.95
2019-02-19T13:08:18.128Z,37.93
2019-02-19T13:10:48.768Z,41.50
2019-02-19T13:13:19.397Z,39.92
2019-02-19T13:15:50.016Z,40.00
2019-02-19T13:18:20.608Z,40.60
2019-02-19T13:20:51.275Z,38.08
2019-02-19T13:23:21.799Z,41.00
2019-02-19T13:25:52.463Z,41.23
2019-02-19T13:28:23.007Z,40.52
2019-02-19T13:30:53.521Z,42.50
2019-02-19T13:33:24.025Z,40.60
2019-02-19T13:35:55.577Z,40.67
2019-02-19T13:38:26.175Z,43.15
2019-02-19T13:40:59.208Z,42.03
2019-02-19T13:43:29.812Z,39.70
2019-02-19T13:46:00.399Z,38.98
2019-02-19T13:48:30.972Z,36.13
2019-02-19T13:51:01.562Z,38.67
2019-02-19T13:53:45.024Z,36.45
2019-02-19T13:56:15.570Z,38.98
2019-02-19T13:58:46.116Z,36.28
2019-02-19T14:01:16.693Z,37.93
2019-02-19T14:04:05.821Z,38.65
2019-02-19T14:06:36.338Z,35.38
2019-02-19T14:09:06.925Z,38.42
2019-02-19T14:11:38.905Z,38.10
2019-02-19T14:14:28.380Z,35.20
2019-02-19T14:17:05.121Z,35.45
2019-02-19T14:19:45.476Z,39.10
2019-02-19T14:22:43.774Z,37.13
2019-02-19T14:25:31.783Z,36.63
2019-02-19T14:28:20.138Z,36.08
2019-02-19T14:31:07.149Z,39.10
2019-02-19T14:33:56.755Z,38.98
2019-02-19T14:36:44.589Z,38.25
2019-02-19T14:39:39.197Z,35.58
2019-02-19T14:42:27.249Z,36.48
2019-02-19T14:45:31.744Z,38.83
2019-02-19T14:48:16.288Z,39.40
2019-02-19T14:51:11.309Z,37.30
2019-02-19T14:54:06.836Z,36.38
2019-02-19T14:56:47.411Z,30.72
2019-02-19T14:59:51.718Z,35.78
2019-02-19T15:02:41.138Z,35.68
2019-02-19T15:05:30.517Z,37.20
2019-02-19T15:08:20.142Z,37.58
2019-02-19T15:11:24.468Z,36.08
2019-02-19T15:14:14.408Z,35.05
2019-02-19T15:17:19.220Z,34.43
2019-02-19T15:20:07.226Z,35.75
2019-02-19T15:22:48.279Z,35.83
2019-02-19T15:25:36.479Z,36.63
2019-02-19T15:28:14.429Z,37.60
2019-02-19T15:31:03.877Z,36.75
2019-02-19T15:33:42.322Z,34.63
2019-02-19T15:36:37.802Z,36.95
2019-02-19T15:39:26.038Z,36.55
2019-02-19T15:42:21.307Z,33.50
2019-02-19T15:45:09.670Z,38.20
2019-02-19T15:47:59.122Z,38.73
2019-02-19T15:50:47.447Z,36.15
2019-02-19T15:53:46.011Z,36.08
2019-02-19T15:56:38.329Z,39.42
2019-02-19T15:59:33.758Z,36.35
2019-02-19T16:02:26.226Z,37.38
2019-02-19T16:05:30.650Z,39.13
2019-02-19T16:08:31.832Z,34.83
2019-02-19T16:11:36.656Z,38.50
2019-02-19T16:14:26.068Z,37.93
2019-02-19T16:17:21.412Z,36.98
2019-02-19T16:20:00.158Z,39.48
2019-02-19T16:22:55.538Z,39.23
2019-02-19T16:25:43.740Z,35.05
2019-02-19T16:28:33.158Z,37.95
2019-02-19T16:31:20.910Z,37.48
2019-02-19T16:33:58.247Z,39.98
2019-02-19T16:37:02.598Z,40.48
2019-02-19T16:39:44.576Z,35.75
2019-02-19T16:42:32.324Z,39.63
2019-02-19T16:45:21.760Z,39.35
2019-02-19T16:48:10.549Z,41.75
2019-02-19T16:50:58.844Z,38.08
2019-02-19T16:53:48.249Z,40.58
2019-02-19T16:56:25.583Z,43.80
2019-02-19T16:59:13.792Z,40.30
2019-02-19T17:02:05.847Z,40.95
2019-02-19T17:04:46.806Z,39.53
2019-02-19T17:07:28.237Z,41.75
2019-02-19T17:10:20.703Z,43.23
2019-02-19T17:12:58.256Z,41.15
2019-02-19T17:16:00.499Z,43.95
2019-02-19T17:18:57.249Z,42.30
2019-02-19T17:21:46.656Z,39.80
2019-02-19T17:24:54.406Z,41.13
2019-02-19T17:27:33.150Z,41.08
2019-02-19T17:30:23.543Z,41.33
2019-02-19T17:33:02.165Z,39.60
2019-02-19T17:35:54.348Z,38.58
2019-02-19T17:38:52.685Z,37.50
2019-02-19T17:41:44.740Z,36.68
2019-02-19T17:44:25.893Z,37.10
2019-02-19T17:47:14.991Z,34.73
2019-02-19T17:49:55.036Z,36.75
2019-02-19T17:52:56.824Z,34.05
2019-02-19T17:56:01.189Z,34.45
2019-02-19T17:58:45.607Z,33.28
2019-02-19T18:01:25.834Z,28.40
2019-02-19T18:04:27.521Z,28.98
2019-02-19T18:07:15.933Z,27.70
2019-02-19T18:10:01.530Z,28.62
2019-02-19T18:13:00.086Z,28.35
2019-02-19T18:15:48.068Z,27.98
2019-02-19T18:18:47.164Z,27.48
2019-02-19T18:21:18.917Z,26.45
2019-02-19T18:23:50.442Z,24.70
2019-02-19T18:26:21.053Z,25.70
2019-02-19T18:28:51.605Z,22.75
2019-02-19T18:31:22.182Z,23.62
2019-02-19T18:33:52.677Z,25.25
2019-02-19T18:36:23.321Z,23.15
2019-02-19T18:38:53.833Z,23.25
2019-02-19T18:41:24.456Z,22.05
2019-02-19T18:43:55.061Z,20.65
2019-02-19T18:46:25.608Z,21.23
2019-02-19T18:48:56.275Z,20.92
2019-02-19T18:51:26.815Z,21.70
2019-02-19T18:53:57.523Z,20.27
2019-02-19T18:56:28.118Z,20.15
2019-02-19T18:58:58.662Z,18.85
2019-02-19T19:01:29.534Z,19.45
2019-02-19T19:04:00.039Z,17.90
2019-02-19T19:06:30.675Z,17.45
2019-02-19T19:09:01.222Z,17.77
2019-02-19T19:11:33.716Z,16.93
2019-02-19T19:14:06.789Z,17.05
2019-02-19T19:16:37.921Z,18.40
2019-02-19T19:19:08.464Z,16.57
2019-02-19T19:21:39.660Z,16.70
2019-02-19T19:24:10.757Z,16.70
2019-02-19T19:26:41.701Z,16.37
2019-02-19T19:29:12.629Z,15.98
2019-02-19T19:31:44.520Z,15.45
2019-02-19T19:34:15.126Z,15.63
2019-02-19T19:36:45.786Z,14.98
2019-02-19T19:39:16.293Z,15.45
2019-02-19T19:41:46.915Z,14.73
2019-02-19T19:44:17.528Z,14.78
2019-02-19T19:46:48.506Z,14.47
2019-02-19T19:49:19.045Z,13.60
2019-02-19T19:51:49.659Z,14.18
2019-02-19T19:54:20.607Z,13.28
2019-02-19T19:56:51.253Z,13.90
2019-02-19T19:59:22.074Z,14.00
2019-02-19T20:01:52.649Z,13.50
2019-02-19T20:04:23.245Z,13.58
2019-02-19T20:06:54.200Z,13.75
2019-02-19T20:09:24.957Z,13.13
2019-02-19T20:11:55.478Z,12.78
2019-02-19T20:14:26.380Z,13.55
2019-02-19T20:16:56.930Z,13.08
2019-02-19T20:19:27.641Z,13.65
2019-02-19T20:21:58.708Z,12.82
2019-02-19T20:24:29.316Z,13.70
2019-02-19T20:26:59.944Z,13.80
2019-02-19T20:29:30.687Z,12.47
2019-02-19T20:32:01.282Z,12.65
2019-02-19T20:34:32.968Z,13.18
2019-02-19T20:37:04.440Z,13.58
2019-02-19T20:39:35.066Z,12.90
2019-02-19T20:42:05.754Z,13.88
2019-02-19T20:44:36.432Z,13.75
2019-02-19T20:47:06.989Z,13.78
2019-02-19T20:49:37.552Z,15.25
2019-02-19T20:52:08.070Z,14.07
2019-02-19T20:54:38.683Z,14.00
2019-02-19T20:57:09.716Z,14.47
2019-02-19T20:59:40.638Z,15.18
2019-02-19T21:02:11.270Z,14.95
2019-02-19T21:04:41.842Z,15.18
2019-02-19T21:07:12.461Z,14.25
2019-02-19T21:09:44.209Z,14.85
2019-02-19T21:12:16.428Z,14.23
2019-02-19T21:14:47.612Z,14.63
2019-02-19T21:17:18.471Z,13.30
2019-02-19T21:19:49.628Z,14.95
2019-02-19T21:22:20.553Z,13.62
2019-02-19T21:24:51.462Z,14.10
2019-02-19T21:27:22.544Z,14.47
2019-02-19T21:29:53.769Z,16.65
2019-02-19T21:32:24.834Z,14.75
2019-02-19T21:34:55.836Z,14.23
2019-02-19T21:37:26.977Z,15.32
2019-02-19T21:39:57.734Z,12.95
2019-02-19T21:42:28.804Z,14.50
2019-02-19T21:44:59.821Z,14.53
2019-02-19T21:47:30.801Z,15.55
2019-02-19T21:50:01.790Z,14.53
2019-02-19T21:52:33.164Z,13.95
2019-02-19T21:55:04.683Z,13.58
2019-02-19T21:57:36.776Z,14.87
2019-02-19T22:00:08.458Z,13.03
2019-02-19T22:02:41.029Z,13.20
2019-02-19T22:05:12.049Z,13.25
2019-02-19T22:07:43.098Z,13.08
2019-02-19T22:10:14.137Z,11.30
2019-02-19T22:12:45.191Z,12.43
2019-02-19T22:15:16.121Z,12.53
2019-02-19T22:17:47.064Z,12.33
2019-02-19T22:20:36.368Z,12.70
2019-02-19T22:23:07.784Z,13.43
2019-02-19T22:25:38.747Z,12.15
2019-02-19T22:28:09.662Z,11.88
2019-02-19T22:30:40.689Z,13.83
2019-02-19T22:33:11.996Z,11.53
2019-02-19T22:35:42.490Z,13.85
2019-02-19T22:38:13.642Z,12.50
2019-02-19T22:40:44.700Z,12.93
2019-02-19T22:43:15.352Z,11.75
2019-02-19T22:45:45.928Z,11.33
2019-02-19T22:48:16.997Z,11.48
2019-02-19T22:50:48.109Z,11.00
2019-02-19T22:53:36.721Z,11.15
2019-02-19T22:56:23.594Z,10.32
2019-02-19T22:58:54.537Z,10.85
2019-02-19T23:01:35.083Z,10.55
2019-02-19T23:04:06.249Z,10.90
2019-02-19T23:06:37.274Z,9.73
2019-02-19T23:09:08.506Z,10.08
2019-02-19T23:11:39.883Z,8.93
2019-02-19T23:14:11.948Z,8.78
2019-02-19T23:16:43.002Z,9.60
2019-02-19T23:19:14.018Z,9.00
2019-02-19T23:21:46.197Z,9.35
2019-02-19T23:24:17.136Z,9.35
2019-02-19T23:26:48.084Z,9.18
2019-02-19T23:29:19.020Z,9.48
2019-02-19T23:31:50.049Z,8.28
2019-02-19T23:34:21.116Z,8.28
2019-02-19T23:36:58.120Z,8.55
2019-02-19T23:39:29.016Z,7.42
2019-02-19T23:41:59.948Z,7.47
2019-02-19T23:44:31.049Z,7.42
2019-02-19T23:47:01.950Z,7.75
2019-02-19T23:49:32.995Z,7.22
2019-02-19T23:52:04.123Z,7.10
2019-02-19T23:54:34.976Z,6.95
2019-02-19T23:57:06.008Z,6.30
2019-02-19T23:59:37.060Z,7.35
